Time;durP1;ratioP1;P1;durP2;ratioP2;P2;SDS_P1;SDS_P2;PMS_P1;PMS_P2;Temp;Humidity;BMP_temperature;BMP_pressure;BME280_temperature;BME280_humidity;BME280_pressure;Samples;Min_cycle;Max_cycle;Signal;HPM_P1;HPM_P2
2022/02/22 00:00:03;;;;;;;6.35;1.10;;;;;;;;;;1684454;29;21664;-57
2022/02/22 00:00:55;;;;;;;3.63;1.38;;;;;;;;;;1690362;29;21543;-58
2022/02/22 00:01:47;;;;;;;3.60;1.00;;;;;;;;;;1688368;29;22040;-58
2022/02/22 00:02:41;;;;;;;5.30;0.90;;;;;;;;;;1684657;29;21547;-57
2022/02/22 00:03:36;;;;;;;4.88;0.80;;;;;;;;;;1690018;29;21759;-57
2022/02/22 00:04:33;;;;;;;9.10;1.25;;;;;;;;;;1688766;29;21606;-57
2022/02/22 00:05:24;;;;;;;12.35;1.05;;;;;;;;;;1686335;29;21600;-58
2022/02/22 00:06:17;;;;;;;6.25;1.42;;;;;;;;;;1683842;29;21549;-58
2022/02/22 00:07:08;;;;;;;1.38;0.90;;;;;;;;;;1683748;29;21603;-57
2022/02/22 00:08:00;;;;;;;3.35;1.13;;;;;;;;;;1683747;29;22027;-57
2022/02/22 00:08:51;;;;;;;6.03;1.23;;;;;;;;;;1684014;29;21602;-57
2022/02/22 00:09:43;;;;;;;6.57;0.90;;;;;;;;;;1684860;29;21974;-57
2022/02/22 00:10:35;;;;;;;1.15;0.82;;;;;;;;;;1687897;29;21575;-57
2022/02/22 00:11:27;;;;;;;1.50;1.30;;;;;;;;;;1689397;29;21595;-57
2022/02/22 00:12:18;;;;;;;7.15;0.93;;;;;;;;;;1687184;29;21598;-57
2022/02/22 00:13:10;;;;;;;1.35;1.10;;;;;;;;;;1683769;29;21530;-57
2022/02/22 00:14:02;;;;;;;2.28;1.00;;;;;;;;;;1683871;29;21688;-57
2022/02/22 00:14:56;;;;;;;0.77;0.77;;;;;;;;;;1683995;29;21507;-58
2022/02/22 00:15:47;;;;;;;10.02;1.33;;;;;;;;;;1683766;29;21684;-58
2022/02/22 00:16:39;;;;;;;0.95;0.95;;;;;;;;;;1685277;29;21875;-57
2022/02/22 00:17:33;;;;;;;5.13;1.20;;;;;;;;;;1690291;29;21826;-57
2022/02/22 00:18:25;;;;;;;0.85;0.80;;;;;;;;;;1689351;29;21629;-58
2022/02/22 00:19:16;;;;;;;0.95;0.82;;;;;;;;;;1690347;29;21562;-57
2022/02/22 00:20:10;;;;;;;3.05;1.10;;;;;;;;;;1688164;29;21717;-57
2022/02/22 00:21:01;;;;;;;1.50;1.02;;;;;;;;;;1684872;29;22106;-57
2022/02/22 00:21:55;;;;;;;1.17;1.05;;;;;;;;;;1683824;29;21551;-58
2022/02/22 00:22:46;;;;;;;2.40;1.52;;;;;;;;;;1677253;29;21888;-58
2022/02/22 00:23:39;;;;;;;4.82;0.93;;;;;;;;;;1683965;29;21517;-57
2022/02/22 00:24:30;;;;;;;1.33;1.20;;;;;;;;;;1688060;29;21628;-57
2022/02/22 00:25:22;;;;;;;4.78;1.00;;;;;;;;;;1689313;29;21599;-57
2022/02/22 00:26:14;;;;;;;1.10;1.00;;;;;;;;;;1685139;29;22102;-58
2022/02/22 00:27:06;;;;;;;1.58;0.85;;;;;;;;;;1688344;29;21551;-58
2022/02/22 00:28:07;;;;;;;1.98;0.80;;;;;;;;;;1686281;29;21759;-56
2022/02/22 00:29:00;;;;;;;1.60;1.23;;;;;;;;;;1682635;29;21542;-58
2022/02/22 00:29:53;;;;;;;6.80;1.20;;;;;;;;;;1689206;29;22090;-57
2022/02/22 00:30:48;;;;;;;1.20;1.08;;;;;;;;;;1690213;29;21643;-57
2022/02/22 00:31:39;;;;;;;1.65;1.10;;;;;;;;;;1688237;29;21650;-57
2022/02/22 00:32:31;;;;;;;5.40;1.20;;;;;;;;;;1684460;29;22145;-57
2022/02/22 00:33:23;;;;;;;0.80;0.80;;;;;;;;;;1683721;29;21610;-58
2022/02/22 00:34:15;;;;;;;1.40;1.15;;;;;;;;;;1677303;29;21899;-58
2022/02/22 00:35:08;;;;;;;7.80;1.35;;;;;;;;;;1677316;29;21593;-57
2022/02/22 00:36:00;;;;;;;1.45;0.82;;;;;;;;;;1683874;29;21594;-57
2022/02/22 00:36:52;;;;;;;1.10;1.00;;;;;;;;;;1685014;29;21600;-58
2022/02/22 00:37:44;;;;;;;1.40;1.13;;;;;;;;;;1684808;29;21599;-57
2022/02/22 00:38:35;;;;;;;6.63;1.23;;;;;;;;;;1684858;29;21659;-58
2022/02/22 00:39:27;;;;;;;2.22;1.08;;;;;;;;;;1687175;29;21588;-57
2022/02/22 00:40:18;;;;;;;3.97;1.25;;;;;;;;;;1690717;29;22072;-57
2022/02/22 00:41:11;;;;;;;1.70;0.93;;;;;;;;;;1690008;29;21582;-57
2022/02/22 00:42:03;;;;;;;4.30;1.13;;;;;;;;;;1686270;29;21591;-57
2022/02/22 00:42:55;;;;;;;2.00;0.80;;;;;;;;;;1684799;29;22049;-58
2022/02/22 00:43:46;;;;;;;3.05;1.10;;;;;;;;;;1684860;29;22168;-57
2022/02/22 00:44:38;;;;;;;2.00;1.10;;;;;;;;;;1684901;29;21644;-57
2022/02/22 00:45:29;;;;;;;1.25;1.15;;;;;;;;;;1684572;29;21547;-57
2022/02/22 00:46:23;;;;;;;3.25;1.20;;;;;;;;;;1686814;29;21956;-58
2022/02/22 00:47:14;;;;;;;17.00;1.30;;;;;;;;;;1684695;29;21941;-58
2022/02/22 00:48:07;;;;;;;14.70;1.92;;;;;;;;;;1684508;29;21720;-57
2022/02/22 00:48:58;;;;;;;3.33;1.10;;;;;;;;;;1686508;29;21543;-58
2022/02/22 00:49:51;;;;;;;5.55;1.20;;;;;;;;;;1685047;29;21521;-58
2022/02/22 00:50:42;;;;;;;2.10;1.15;;;;;;;;;;1690164;29;21734;-57
2022/02/22 00:51:35;;;;;;;4.93;1.17;;;;;;;;;;1691499;29;22036;-57
2022/02/22 00:52:26;;;;;;;4.57;1.27;;;;;;;;;;1687479;29;21602;-57
2022/02/22 00:53:19;;;;;;;3.83;1.13;;;;;;;;;;1687742;29;21916;-58
2022/02/22 00:54:10;;;;;;;1.40;1.30;;;;;;;;;;1690320;29;21568;-58
2022/02/22 00:55:03;;;;;;;4.75;1.60;;;;;;;;;;1691344;29;21561;-57
2022/02/22 00:55:54;;;;;;;3.10;1.58;;;;;;;;;;1687526;29;21660;-58
2022/02/22 00:56:46;;;;;;;1.17;1.08;;;;;;;;;;1686684;29;21562;-57
2022/02/22 00:57:41;;;;;;;2.88;1.02;;;;;;;;;;1690599;29;21770;-58
2022/02/22 00:58:33;;;;;;;4.22;1.30;;;;;;;;;;1678429;29;21886;-58
2022/02/22 00:59:25;;;;;;;2.83;1.45;;;;;;;;;;1678313;29;22060;-58
2022/02/22 01:00:17;;;;;;;6.50;1.60;;;;;;;;;;1684041;29;22061;-57
2022/02/22 01:01:11;;;;;;;1.98;1.30;;;;;;;;;;1685434;29;21557;-57
2022/02/22 01:02:05;;;;;;;2.30;1.30;;;;;;;;;;1690235;29;21942;-57
2022/02/22 01:02:56;;;;;;;1.60;1.20;;;;;;;;;;1689334;29;21695;-58
2022/02/22 01:03:49;;;;;;;1.10;1.00;;;;;;;;;;1684289;29;21535;-57
2022/02/22 01:04:40;;;;;;;2.47;1.50;;;;;;;;;;1684890;29;21555;-58
2022/02/22 01:05:32;;;;;;;8.63;1.60;;;;;;;;;;1684175;29;22033;-57
2022/02/22 01:06:23;;;;;;;5.90;1.45;;;;;;;;;;1685028;29;21871;-58
2022/02/22 01:07:17;;;;;;;1.30;1.20;;;;;;;;;;1685550;29;22122;-57
2022/02/22 01:08:08;;;;;;;3.85;1.30;;;;;;;;;;1686932;29;21606;-57
2022/02/22 01:09:00;;;;;;;1.40;1.15;;;;;;;;;;1686795;29;21633;-57
2022/02/22 01:09:52;;;;;;;2.30;1.00;;;;;;;;;;1688486;29;21711;-57
2022/02/22 01:10:44;;;;;;;1.33;1.20;;;;;;;;;;1690115;29;22018;-58
2022/02/22 01:11:36;;;;;;;4.55;1.27;;;;;;;;;;1686908;29;21964;-58
2022/02/22 01:12:28;;;;;;;4.53;1.23;;;;;;;;;;1688157;29;21917;-57
2022/02/22 01:13:21;;;;;;;3.33;1.50;;;;;;;;;;1690304;29;21524;-58
2022/02/22 01:14:13;;;;;;;4.97;1.50;;;;;;;;;;1690245;29;22220;-57
2022/02/22 01:15:07;;;;;;;4.45;1.48;;;;;;;;;;1685500;29;21610;-57
2022/02/22 01:15:59;;;;;;;3.67;1.40;;;;;;;;;;1681701;29;21496;-58
2022/02/22 01:16:50;;;;;;;4.80;1.92;;;;;;;;;;1686669;29;21612;-58
2022/02/22 01:17:44;;;;;;;2.65;1.40;;;;;;;;;;1684986;29;21574;-57
2022/02/22 01:18:35;;;;;;;2.03;1.25;;;;;;;;;;1691177;29;21532;-57
2022/02/22 01:19:27;;;;;;;3.45;1.40;;;;;;;;;;1690126;29;21701;-57
2022/02/22 01:20:18;;;;;;;4.57;1.10;;;;;;;;;;1686888;29;21991;-57
2022/02/22 01:21:11;;;;;;;2.03;1.80;;;;;;;;;;1684695;29;21539;-58
2022/02/22 01:22:03;;;;;;;1.42;1.25;;;;;;;;;;1683630;29;21558;-58
2022/02/22 01:22:56;;;;;;;1.48;1.38;;;;;;;;;;1684795;29;21531;-58
2022/02/22 01:23:48;;;;;;;1.48;1.30;;;;;;;;;;1684660;29;21832;-57
2022/02/22 01:24:40;;;;;;;1.45;1.35;;;;;;;;;;1686698;29;21603;-58
2022/02/22 01:25:31;;;;;;;2.22;1.25;;;;;;;;;;1690280;29;21932;-57
2022/02/22 01:26:24;;;;;;;1.70;1.60;;;;;;;;;;1686709;29;21716;-57
2022/02/22 01:27:15;;;;;;;1.33;1.23;;;;;;;;;;1684032;29;21568;-58
2022/02/22 01:28:07;;;;;;;1.40;1.30;;;;;;;;;;1685932;29;21535;-57
2022/02/22 01:28:59;;;;;;;1.67;1.45;;;;;;;;;;1690050;29;21520;-57
2022/02/22 01:29:51;;;;;;;3.15;1.55;;;;;;;;;;1690122;29;21654;-57
2022/02/22 01:30:42;;;;;;;1.30;1.20;;;;;;;;;;1686535;29;21585;-58
2022/02/22 01:31:34;;;;;;;1.55;1.30;;;;;;;;;;1684702;29;21623;-57
2022/02/22 01:32:26;;;;;;;1.90;1.55;;;;;;;;;;1684383;29;21613;-57
2022/02/22 01:33:20;;;;;;;1.40;1.30;;;;;;;;;;1684584;29;22042;-57
2022/02/22 01:34:11;;;;;;;1.42;1.30;;;;;;;;;;1683956;29;21705;-57
2022/02/22 01:35:04;;;;;;;1.80;1.27;;;;;;;;;;1684548;29;21509;-57
2022/02/22 01:35:55;;;;;;;7.15;1.50;;;;;;;;;;1684608;29;21678;-58
2022/02/22 01:36:47;;;;;;;1.90;1.40;;;;;;;;;;1686907;29;22190;-58
2022/02/22 01:37:38;;;;;;;1.30;1.20;;;;;;;;;;1688331;29;21751;-58
2022/02/22 01:38:30;;;;;;;2.10;1.48;;;;;;;;;;1686837;29;21709;-57
2022/02/22 01:39:22;;;;;;;1.90;1.40;;;;;;;;;;1690532;29;21554;-58
2022/02/22 01:40:14;;;;;;;3.58;1.38;;;;;;;;;;1688646;29;21579;-58
2022/02/22 01:41:05;;;;;;;1.60;1.50;;;;;;;;;;1685995;29;21529;-57
2022/02/22 01:41:57;;;;;;;1.40;1.30;;;;;;;;;;1691045;29;21579;-58
2022/02/22 01:42:49;;;;;;;2.83;1.30;;;;;;;;;;1685263;29;21580;-57
2022/02/22 01:43:41;;;;;;;2.00;1.70;;;;;;;;;;1685489;29;21877;-58
2022/02/22 01:44:32;;;;;;;1.48;1.38;;;;;;;;;;1688800;29;21586;-58
2022/02/22 01:45:25;;;;;;;11.02;1.70;;;;;;;;;;1690232;29;21556;-57
2022/02/22 01:46:16;;;;;;;22.77;1.90;;;;;;;;;;1685744;29;21563;-57
2022/02/22 01:47:11;;;;;;;20.42;2.08;;;;;;;;;;1684805;29;21497;-57
2022/02/22 01:48:03;;;;;;;16.67;2.08;;;;;;;;;;1690062;29;21693;-58
2022/02/22 01:48:56;;;;;;;20.73;1.65;;;;;;;;;;1686835;29;21991;-57
2022/02/22 01:49:48;;;;;;;31.38;2.38;;;;;;;;;;1684997;29;21536;-57
2022/02/22 01:50:40;;;;;;;30.08;3.05;;;;;;;;;;1690174;29;21572;-57
2022/02/22 01:51:32;;;;;;;18.27;2.17;;;;;;;;;;1691032;29;21898;-57
2022/02/22 01:52:26;;;;;;;4.07;1.83;;;;;;;;;;1687040;29;21676;-57
2022/02/22 01:53:18;;;;;;;18.60;1.73;;;;;;;;;;1687469;29;21498;-57
2022/02/22 01:54:10;;;;;;;12.82;2.60;;;;;;;;;;1690057;29;21695;-57
2022/02/22 01:55:01;;;;;;;14.45;1.60;;;;;;;;;;1690998;29;22146;-57
2022/02/22 01:55:53;;;;;;;4.07;1.70;;;;;;;;;;1687988;29;21708;-57
2022/02/22 01:56:44;;;;;;;3.17;1.60;;;;;;;;;;1686146;29;21518;-57
2022/02/22 01:57:37;;;;;;;11.32;1.58;;;;;;;;;;1677900;29;22207;-57
2022/02/22 01:58:29;;;;;;;2.83;1.73;;;;;;;;;;1684048;29;21527;-58
2022/02/22 01:59:22;;;;;;;17.10;1.83;;;;;;;;;;1684874;29;21488;-57
2022/02/22 02:00:15;;;;;;;8.48;1.80;;;;;;;;;;1678082;29;21605;-57
2022/02/22 02:01:08;;;;;;;7.97;1.85;;;;;;;;;;1683340;29;21873;-58
2022/02/22 02:01:59;;;;;;;8.10;1.52;;;;;;;;;;1685643;29;21680;-58
2022/02/22 02:02:51;;;;;;;8.57;1.90;;;;;;;;;;1684444;29;21544;-58
2022/02/22 02:03:43;;;;;;;9.13;1.58;;;;;;;;;;1684414;29;21565;-58
2022/02/22 02:04:36;;;;;;;17.23;2.08;;;;;;;;;;1684595;29;21544;-57
2022/02/22 02:05:28;;;;;;;1.83;1.60;;;;;;;;;;1684589;29;21570;-57
2022/02/22 02:06:20;;;;;;;6.03;1.48;;;;;;;;;;1679065;29;21509;-57
2022/02/22 02:07:12;;;;;;;6.93;1.70;;;;;;;;;;1682187;29;22150;-58
2022/02/22 02:08:05;;;;;;;7.75;1.70;;;;;;;;;;1684361;29;21691;-58
2022/02/22 02:08:56;;;;;;;4.72;1.58;;;;;;;;;;1684532;29;22016;-57
2022/02/22 02:09:48;;;;;;;8.27;1.38;;;;;;;;;;1687130;29;21511;-57
2022/02/22 02:10:39;;;;;;;3.90;1.38;;;;;;;;;;1689928;29;21548;-57
2022/02/22 02:11:44;;;;;;;6.28;1.40;;;;;;;;;;1691022;29;21964;-57
2022/02/22 02:12:36;;;;;;;3.00;1.50;;;;;;;;;;1686856;29;21541;-58
2022/02/22 02:13:28;;;;;;;3.30;1.45;;;;;;;;;;1683363;29;21528;-58
2022/02/22 02:14:19;;;;;;;3.25;1.38;;;;;;;;;;1677230;29;21562;-57
2022/02/22 02:15:12;;;;;;;3.05;1.38;;;;;;;;;;1677474;29;21646;-57
2022/02/22 02:16:03;;;;;;;3.58;1.40;;;;;;;;;;1684691;29;21570;-58
2022/02/22 02:16:58;;;;;;;2.17;1.35;;;;;;;;;;1684197;29;21643;-57
2022/02/22 02:17:49;;;;;;;3.30;1.65;;;;;;;;;;1684373;29;22034;-58
2022/02/22 02:18:41;;;;;;;2.78;1.45;;;;;;;;;;1686734;29;21663;-57
2022/02/22 02:19:32;;;;;;;4.10;1.58;;;;;;;;;;1690022;29;21600;-57
2022/02/22 02:20:26;;;;;;;2.55;1.40;;;;;;;;;;1677962;29;21564;-57
2022/02/22 02:21:18;;;;;;;2.47;1.48;;;;;;;;;;1681210;29;21557;-57
2022/02/22 02:22:12;;;;;;;4.53;1.52;;;;;;;;;;1683404;29;22115;-57
2022/02/22 02:23:03;;;;;;;1.73;1.52;;;;;;;;;;1684187;29;21662;-57
2022/02/22 02:23:55;;;;;;;1.50;1.27;;;;;;;;;;1684307;29;21506;-58
2022/02/22 02:24:46;;;;;;;1.73;1.13;;;;;;;;;;1686034;29;21628;-58
2022/02/22 02:25:38;;;;;;;1.50;1.40;;;;;;;;;;1688216;29;21677;-57
2022/02/22 02:26:29;;;;;;;1.88;1.48;;;;;;;;;;1683718;29;21567;-58
2022/02/22 02:27:22;;;;;;;3.50;1.50;;;;;;;;;;1686991;29;22044;-57
2022/02/22 02:28:13;;;;;;;3.63;1.63;;;;;;;;;;1689995;29;21776;-57
2022/02/22 02:29:08;;;;;;;1.55;1.15;;;;;;;;;;1687941;29;22136;-58
2022/02/22 02:29:59;;;;;;;1.42;1.02;;;;;;;;;;1686998;29;21565;-58
2022/02/22 02:30:52;;;;;;;2.10;1.33;;;;;;;;;;1689838;29;21557;-58
2022/02/22 02:31:45;;;;;;;3.42;1.50;;;;;;;;;;1688621;29;21507;-58
2022/02/22 02:32:38;;;;;;;4.47;1.50;;;;;;;;;;1686109;29;21636;-58
2022/02/22 02:33:29;;;;;;;4.57;1.65;;;;;;;;;;1690456;29;22079;-57
2022/02/22 02:34:23;;;;;;;4.07;1.60;;;;;;;;;;1690450;29;21654;-57
2022/02/22 02:35:14;;;;;;;6.95;1.50;;;;;;;;;;1690919;29;21537;-57
2022/02/22 02:36:07;;;;;;;4.72;1.45;;;;;;;;;;1685065;29;21579;-58
2022/02/22 02:36:58;;;;;;;6.07;1.67;;;;;;;;;;1687420;29;21570;-58
2022/02/22 02:37:51;;;;;;;19.25;1.90;;;;;;;;;;1689783;29;21554;-58
2022/02/22 02:38:42;;;;;;;7.97;1.42;;;;;;;;;;1685551;29;21575;-58
2022/02/22 02:39:35;;;;;;;3.03;1.55;;;;;;;;;;1688721;29;21730;-57
2022/02/22 02:40:26;;;;;;;5.63;1.73;;;;;;;;;;1689874;29;21632;-57
2022/02/22 02:41:18;;;;;;;1.70;1.27;;;;;;;;;;1686297;29;22198;-57
2022/02/22 02:42:09;;;;;;;3.20;1.45;;;;;;;;;;1688038;29;22024;-58
2022/02/22 02:43:02;;;;;;;4.15;1.80;;;;;;;;;;1689526;29;21556;-57
2022/02/22 02:43:53;;;;;;;3.80;1.52;;;;;;;;;;1688845;29;21575;-58
2022/02/22 02:44:46;;;;;;;6.75;1.40;;;;;;;;;;1683472;29;22243;-58
2022/02/22 02:45:37;;;;;;;7.00;1.50;;;;;;;;;;1689777;29;22036;-58
2022/02/22 02:46:30;;;;;;;2.17;1.20;;;;;;;;;;1685092;29;21675;-57
2022/02/22 02:47:21;;;;;;;3.95;1.42;;;;;;;;;;1683339;29;21545;-57
2022/02/22 02:48:13;;;;;;;3.38;1.48;;;;;;;;;;1690804;29;22130;-58
2022/02/22 02:49:05;;;;;;;5.97;1.35;;;;;;;;;;1688060;29;22173;-58
2022/02/22 02:49:58;;;;;;;8.10;1.70;;;;;;;;;;1686348;29;22086;-58
2022/02/22 02:50:49;;;;;;;6.45;1.20;;;;;;;;;;1677732;29;21538;-58
2022/02/22 02:51:43;;;;;;;5.03;1.40;;;;;;;;;;1683205;29;21888;-57
2022/02/22 02:52:34;;;;;;;3.35;1.55;;;;;;;;;;1684117;29;21923;-57
2022/02/22 02:53:27;;;;;;;7.38;1.50;;;;;;;;;;1690164;29;22094;-57
2022/02/22 02:54:19;;;;;;;2.30;1.40;;;;;;;;;;1689325;29;21582;-58
2022/02/22 02:55:11;;;;;;;1.85;1.35;;;;;;;;;;1686371;29;22085;-58
2022/02/22 02:56:02;;;;;;;2.38;1.17;;;;;;;;;;1684177;29;21500;-57
2022/02/22 02:56:55;;;;;;;1.52;1.13;;;;;;;;;;1683231;29;21573;-58
2022/02/22 02:57:46;;;;;;;4.10;1.27;;;;;;;;;;1687196;29;21554;-57
2022/02/22 02:58:38;;;;;;;1.67;1.38;;;;;;;;;;1683646;29;21558;-58
2022/02/22 02:59:29;;;;;;;3.40;1.20;;;;;;;;;;1684117;29;21611;-58
2022/02/22 03:00:22;;;;;;;1.80;1.25;;;;;;;;;;1686080;29;21578;-57
2022/02/22 03:01:13;;;;;;;4.70;1.10;;;;;;;;;;1683085;29;21523;-58
2022/02/22 03:02:05;;;;;;;1.30;1.23;;;;;;;;;;1684039;29;22253;-58
2022/02/22 03:02:56;;;;;;;2.55;1.10;;;;;;;;;;1684235;29;21603;-58
2022/02/22 03:03:49;;;;;;;2.22;1.23;;;;;;;;;;1684099;29;21558;-57
2022/02/22 03:04:40;;;;;;;1.08;1.05;;;;;;;;;;1684305;29;22139;-58
2022/02/22 03:05:32;;;;;;;1.20;1.10;;;;;;;;;;1680292;29;21721;-57
2022/02/22 03:06:24;;;;;;;2.42;1.48;;;;;;;;;;1677449;29;21599;-57
2022/02/22 03:07:16;;;;;;;1.77;1.15;;;;;;;;;;1682604;29;21965;-57
2022/02/22 03:08:07;;;;;;;3.50;1.02;;;;;;;;;;1684753;29;21652;-58
2022/02/22 03:09:01;;;;;;;4.32;1.25;;;;;;;;;;1684155;29;21544;-58
2022/02/22 03:09:53;;;;;;;1.20;1.00;;;;;;;;;;1677826;29;22102;-58
2022/02/22 03:10:45;;;;;;;1.38;0.90;;;;;;;;;;1685328;29;21623;-57
2022/02/22 03:11:36;;;;;;;3.60;1.23;;;;;;;;;;1684187;29;21563;-58
2022/02/22 03:12:29;;;;;;;4.22;1.10;;;;;;;;;;1683912;29;22154;-58
2022/02/22 03:13:20;;;;;;;2.38;1.40;;;;;;;;;;1686335;29;21712;-57
2022/02/22 03:14:12;;;;;;;4.40;1.42;;;;;;;;;;1684165;29;21565;-57
2022/02/22 03:15:04;;;;;;;2.35;1.40;;;;;;;;;;1684132;29;21563;-58
2022/02/22 03:15:57;;;;;;;1.65;1.40;;;;;;;;;;1684218;29;21996;-57
2022/02/22 03:16:48;;;;;;;1.65;1.20;;;;;;;;;;1686156;29;21534;-57
2022/02/22 03:17:40;;;;;;;2.28;1.35;;;;;;;;;;1689854;29;21644;-57
2022/02/22 03:18:31;;;;;;;2.72;1.40;;;;;;;;;;1690630;29;22081;-58
2022/02/22 03:19:24;;;;;;;1.95;1.10;;;;;;;;;;1685406;29;21559;-57
2022/02/22 03:20:15;;;;;;;1.50;1.20;;;;;;;;;;1689018;29;22000;-58
2022/02/22 03:21:07;;;;;;;1.88;1.15;;;;;;;;;;1689569;29;21608;-57
2022/02/22 03:21:58;;;;;;;1.05;0.90;;;;;;;;;;1685273;29;21502;-58
2022/02/22 03:22:53;;;;;;;1.30;1.20;;;;;;;;;;1688355;29;22243;-58
2022/02/22 03:23:44;;;;;;;2.97;1.25;;;;;;;;;;1689632;29;21539;-58
2022/02/22 03:24:39;;;;;;;1.67;1.17;;;;;;;;;;1686934;29;21580;-58
2022/02/22 03:25:30;;;;;;;3.40;1.23;;;;;;;;;;1684106;29;22041;-58
2022/02/22 03:26:22;;;;;;;3.08;1.08;;;;;;;;;;1686541;29;21546;-57
2022/02/22 03:27:13;;;;;;;1.15;1.13;;;;;;;;;;1684860;29;21649;-57
2022/02/22 03:28:08;;;;;;;1.13;1.10;;;;;;;;;;1687254;29;21524;-57
2022/02/22 03:28:59;;;;;;;1.05;0.95;;;;;;;;;;1689547;29;22160;-57
2022/02/22 03:29:52;;;;;;;2.72;1.10;;;;;;;;;;1686381;29;21978;-57
2022/02/22 03:30:43;;;;;;;1.20;1.10;;;;;;;;;;1684563;29;21978;-57
2022/02/22 03:31:35;;;;;;;1.33;1.00;;;;;;;;;;1689540;29;21677;-57
2022/02/22 03:32:26;;;;;;;1.00;1.00;;;;;;;;;;1686241;29;21606;-57
2022/02/22 03:33:20;;;;;;;1.23;1.10;;;;;;;;;;1687200;29;21573;-57
2022/02/22 03:34:11;;;;;;;1.25;1.10;;;;;;;;;;1689587;29;21716;-57
2022/02/22 03:35:05;;;;;;;2.38;1.27;;;;;;;;;;1690593;29;21920;-57
2022/02/22 03:35:56;;;;;;;2.13;1.17;;;;;;;;;;1685059;29;21585;-57
2022/02/22 03:36:49;;;;;;;1.50;1.20;;;;;;;;;;1686525;29;21683;-57
2022/02/22 03:37:40;;;;;;;2.03;1.23;;;;;;;;;;1689405;29;21588;-57
2022/02/22 03:38:33;;;;;;;1.77;1.02;;;;;;;;;;1690500;29;21525;-57
2022/02/22 03:39:24;;;;;;;1.10;1.00;;;;;;;;;;1690635;29;22189;-57
2022/02/22 03:40:18;;;;;;;1.27;1.17;;;;;;;;;;1687211;29;21600;-57
2022/02/22 03:41:09;;;;;;;1.45;1.35;;;;;;;;;;1686860;29;21529;-58
2022/02/22 03:42:02;;;;;;;1.40;1.10;;;;;;;;;;1689467;29;21520;-58
2022/02/22 03:42:53;;;;;;;1.08;1.00;;;;;;;;;;1690466;29;22052;-57
2022/02/22 03:43:45;;;;;;;1.20;0.93;;;;;;;;;;1687688;29;21728;-57
2022/02/22 03:44:37;;;;;;;1.40;1.30;;;;;;;;;;1683836;29;22093;-57
2022/02/22 03:45:29;;;;;;;1.20;1.10;;;;;;;;;;1683863;29;21590;-57
2022/02/22 03:46:20;;;;;;;1.83;1.17;;;;;;;;;;1684001;29;21622;-58
2022/02/22 03:47:12;;;;;;;1.10;1.00;;;;;;;;;;1682955;29;21656;-58
2022/02/22 03:48:04;;;;;;;1.42;1.33;;;;;;;;;;1683770;29;21576;-57
2022/02/22 03:48:56;;;;;;;1.35;1.10;;;;;;;;;;1683910;29;21703;-57
2022/02/22 03:49:48;;;;;;;1.52;1.08;;;;;;;;;;1686488;29;21500;-57
2022/02/22 03:50:40;;;;;;;1.00;1.00;;;;;;;;;;1689538;29;21537;-57
2022/02/22 03:51:31;;;;;;;1.20;1.10;;;;;;;;;;1679612;29;21623;-57
2022/02/22 03:52:24;;;;;;;1.23;1.13;;;;;;;;;;1682939;29;21489;-56
2022/02/22 03:53:16;;;;;;;5.78;1.10;;;;;;;;;;1690504;29;21772;-58
2022/02/22 03:54:08;;;;;;;1.52;1.42;;;;;;;;;;1686702;29;21538;-57
2022/02/22 03:54:59;;;;;;;1.90;1.50;;;;;;;;;;1683751;29;22115;-58
2022/02/22 03:55:52;;;;;;;5.63;1.80;;;;;;;;;;1683895;29;21789;-58
2022/02/22 03:56:44;;;;;;;3.78;1.35;;;;;;;;;;1686086;29;21614;-57
2022/02/22 03:57:36;;;;;;;1.80;1.30;;;;;;;;;;1685849;29;21611;-58
2022/02/22 03:58:27;;;;;;;1.23;1.13;;;;;;;;;;1683820;29;21593;-57
2022/02/22 03:59:19;;;;;;;1.20;1.10;;;;;;;;;;1683774;29;21926;-58
2022/02/22 04:00:17;;;;;;;3.15;1.63;;;;;;;;;;1684805;29;21571;-58
2022/02/22 04:01:09;;;;;;;4.03;1.23;;;;;;;;;;1688827;29;21552;-58
2022/02/22 04:02:00;;;;;;;5.00;1.27;;;;;;;;;;1689284;29;21508;-57
2022/02/22 04:02:53;;;;;;;1.27;1.00;;;;;;;;;;1686315;29;21693;-57
2022/02/22 04:03:44;;;;;;;3.80;2.08;;;;;;;;;;1684018;29;22189;-58
2022/02/22 04:04:36;;;;;;;2.40;0.93;;;;;;;;;;1683882;29;21693;-58
2022/02/22 04:05:27;;;;;;;1.33;1.17;;;;;;;;;;1683925;29;21580;-57
2022/02/22 04:06:19;;;;;;;3.38;1.40;;;;;;;;;;1684703;29;22144;-58
2022/02/22 04:07:11;;;;;;;1.00;1.00;;;;;;;;;;1684715;29;21599;-57
2022/02/22 04:08:03;;;;;;;1.67;1.20;;;;;;;;;;1687834;29;21536;-58
2022/02/22 04:08:54;;;;;;;7.32;1.42;;;;;;;;;;1689459;29;22308;-57
2022/02/22 04:09:47;;;;;;;1.20;1.00;;;;;;;;;;1691250;29;21667;-58
2022/02/22 04:10:38;;;;;;;4.32;1.10;;;;;;;;;;1691627;29;21588;-57
2022/02/22 04:11:31;;;;;;;1.38;1.08;;;;;;;;;;1686662;29;21612;-57
2022/02/22 04:12:22;;;;;;;1.48;1.25;;;;;;;;;;1689341;29;21650;-58
2022/02/22 04:13:15;;;;;;;1.20;1.10;;;;;;;;;;1690618;29;21547;-57
2022/02/22 04:14:06;;;;;;;1.95;1.42;;;;;;;;;;1690649;29;21583;-57
2022/02/22 04:14:58;;;;;;;4.30;1.48;;;;;;;;;;1686276;29;21615;-58
2022/02/22 04:15:49;;;;;;;1.40;1.30;;;;;;;;;;1688262;29;21570;-57
2022/02/22 04:16:42;;;;;;;2.45;1.23;;;;;;;;;;1686258;29;21680;-58
2022/02/22 04:17:33;;;;;;;3.42;1.10;;;;;;;;;;1691420;29;21628;-57
2022/02/22 04:18:25;;;;;;;1.30;1.20;;;;;;;;;;1689457;29;22257;-58
2022/02/22 04:19:16;;;;;;;1.25;1.10;;;;;;;;;;1687516;29;21552;-58
2022/02/22 04:20:11;;;;;;;3.83;1.20;;;;;;;;;;1685137;29;21511;-57
2022/02/22 04:21:02;;;;;;;3.08;1.45;;;;;;;;;;1684281;29;21563;-58
2022/02/22 04:21:55;;;;;;;1.35;0.90;;;;;;;;;;1686936;29;21652;-58
2022/02/22 04:22:46;;;;;;;2.53;1.20;;;;;;;;;;1684833;29;21543;-57
2022/02/22 04:23:38;;;;;;;3.90;1.15;;;;;;;;;;1684881;29;21980;-58
2022/02/22 04:24:29;;;;;;;1.50;1.10;;;;;;;;;;1687179;29;21591;-57
2022/02/22 04:25:21;;;;;;;1.38;1.10;;;;;;;;;;1684843;29;21554;-57
2022/02/22 04:26:13;;;;;;;1.23;1.05;;;;;;;;;;1685861;29;21825;-58
2022/02/22 04:27:08;;;;;;;2.03;1.30;;;;;;;;;;1688998;29;21511;-58
2022/02/22 04:27:59;;;;;;;1.73;1.00;;;;;;;;;;1688589;29;21558;-57
2022/02/22 04:28:52;;;;;;;1.27;1.17;;;;;;;;;;1684282;29;21615;-57
2022/02/22 04:29:43;;;;;;;1.33;1.23;;;;;;;;;;1691438;29;22058;-58
2022/02/22 04:30:36;;;;;;;2.13;1.38;;;;;;;;;;1687844;29;21535;-58
2022/02/22 04:31:27;;;;;;;1.65;1.20;;;;;;;;;;1684207;29;21872;-58
2022/02/22 04:32:19;;;;;;;2.40;1.30;;;;;;;;;;1691272;29;21532;-58
2022/02/22 04:33:10;;;;;;;2.83;1.60;;;;;;;;;;1690310;29;21557;-57
2022/02/22 04:34:02;;;;;;;3.63;1.27;;;;;;;;;;1687412;29;22236;-57
2022/02/22 04:34:54;;;;;;;2.08;1.20;;;;;;;;;;1683852;29;21613;-58
2022/02/22 04:35:46;;;;;;;1.23;1.13;;;;;;;;;;1684861;29;21580;-58
2022/02/22 04:36:38;;;;;;;4.10;1.08;;;;;;;;;;1681720;29;21558;-57
2022/02/22 04:37:29;;;;;;;1.55;1.10;;;;;;;;;;1687460;29;21554;-58
2022/02/22 04:38:21;;;;;;;1.55;1.05;;;;;;;;;;1690425;29;21934;-58
2022/02/22 04:39:12;;;;;;;1.58;1.10;;;;;;;;;;1689283;29;21682;-58
2022/02/22 04:40:07;;;;;;;1.67;1.25;;;;;;;;;;1686424;29;21637;-58
2022/02/22 04:40:58;;;;;;;2.53;1.67;;;;;;;;;;1684815;29;21610;-58
2022/02/22 04:41:51;;;;;;;2.20;1.40;;;;;;;;;;1684710;29;21621;-58
2022/02/22 04:42:46;;;;;;;1.70;1.40;;;;;;;;;;1684886;29;21684;-58
2022/02/22 04:43:38;;;;;;;1.55;1.38;;;;;;;;;;1688202;29;21521;-57
2022/02/22 04:44:30;;;;;;;1.20;1.10;;;;;;;;;;1690436;29;23208;-58
2022/02/22 04:45:22;;;;;;;3.03;1.10;;;;;;;;;;1687219;29;21991;-58
2022/02/22 04:46:13;;;;;;;1.73;1.30;;;;;;;;;;1686582;29;21545;-57
2022/02/22 04:47:06;;;;;;;1.38;1.27;;;;;;;;;;1688654;29;21721;-58
2022/02/22 04:47:57;;;;;;;1.50;1.38;;;;;;;;;;1689196;29;21669;-58
2022/02/22 04:48:49;;;;;;;1.20;1.10;;;;;;;;;;1685108;29;21570;-57
2022/02/22 04:49:41;;;;;;;1.40;1.20;;;;;;;;;;1684716;29;21553;-58
2022/02/22 04:50:33;;;;;;;3.35;1.63;;;;;;;;;;1684993;29;21655;-57
2022/02/22 04:51:24;;;;;;;2.47;1.40;;;;;;;;;;1687475;29;21591;-58
2022/02/22 04:52:16;;;;;;;3.17;1.40;;;;;;;;;;1690447;29;21571;-57
2022/02/22 04:53:09;;;;;;;1.92;1.23;;;;;;;;;;1678201;29;21525;-57
2022/02/22 04:54:01;;;;;;;1.48;1.15;;;;;;;;;;1686017;29;22079;-57
2022/02/22 04:54:52;;;;;;;1.48;1.35;;;;;;;;;;1689814;29;21550;-58
2022/02/22 04:55:44;;;;;;;1.65;1.40;;;;;;;;;;1688685;29;21579;-57
2022/02/22 04:56:36;;;;;;;2.67;1.58;;;;;;;;;;1685921;29;21643;-57
2022/02/22 04:57:28;;;;;;;4.20;1.20;;;;;;;;;;1687072;29;22130;-58
2022/02/22 04:58:20;;;;;;;2.80;1.58;;;;;;;;;;1688202;29;22049;-57
2022/02/22 04:59:12;;;;;;;2.17;1.20;;;;;;;;;;1690351;29;22090;-57
2022/02/22 05:00:06;;;;;;;1.30;1.20;;;;;;;;;;1691366;29;21672;-57
2022/02/22 05:00:58;;;;;;;2.63;1.42;;;;;;;;;;1690484;29;21562;-57
2022/02/22 05:01:49;;;;;;;2.30;1.33;;;;;;;;;;1684857;29;21556;-58
2022/02/22 05:02:42;;;;;;;1.60;1.30;;;;;;;;;;1690637;29;21666;-58
2022/02/22 05:03:33;;;;;;;1.75;1.40;;;;;;;;;;1690456;29;21580;-58
2022/02/22 05:04:25;;;;;;;2.05;1.35;;;;;;;;;;1691294;29;21995;-58
2022/02/22 05:05:17;;;;;;;2.40;1.67;;;;;;;;;;1691373;29;21522;-57
2022/02/22 05:06:09;;;;;;;1.27;1.15;;;;;;;;;;1685852;29;21581;-57
2022/02/22 05:07:01;;;;;;;4.10;1.30;;;;;;;;;;1688138;29;22069;-58
2022/02/22 05:07:52;;;;;;;1.10;1.00;;;;;;;;;;1690241;29;21579;-57
2022/02/22 05:08:44;;;;;;;1.75;1.20;;;;;;;;;;1685991;29;22087;-57
2022/02/22 05:09:36;;;;;;;1.50;1.10;;;;;;;;;;1689412;29;22047;-58
2022/02/22 05:10:28;;;;;;;2.22;1.13;;;;;;;;;;1690271;29;22055;-57
2022/02/22 05:11:19;;;;;;;2.20;1.15;;;;;;;;;;1685501;29;21562;-57
2022/02/22 05:12:12;;;;;;;1.42;1.30;;;;;;;;;;1677511;29;21555;-58